createdAt,value
2018-05-12T09:43:07.467Z,51.86
2018-05-12T09:45:33.381Z,50.63
2018-05-12T09:47:59.001Z,52.34
2018-05-12T09:50:25.170Z,53.19
2018-05-12T09:52:50.793Z,52.05
2018-05-12T09:55:16.363Z,51.84
2018-05-12T09:57:42.158Z,53.02
2018-05-12T10:00:07.836Z,52.04
2018-05-12T10:02:33.452Z,52.47
2018-05-12T10:04:59.339Z,51.78
2018-05-12T10:07:24.927Z,51.99
2018-05-12T10:09:50.511Z,51.48
2018-05-12T10:12:16.318Z,51.19
2018-05-12T10:14:42.145Z,50.03
2018-05-12T10:17:07.796Z,50.42
2018-05-12T10:19:33.618Z,51.52
2018-05-12T10:21:59.179Z,51.30
2018-05-12T10:24:24.754Z,51.55
2018-05-12T10:26:50.539Z,51.95
2018-05-12T10:29:16.114Z,47.46
2018-05-12T10:31:41.666Z,48.27
2018-05-12T10:34:07.553Z,46.24
2018-05-12T10:36:33.539Z,46.22
2018-05-12T10:38:59.255Z,45.26
2018-05-12T10:41:24.818Z,45.48
2018-05-12T10:43:50.600Z,45.91
2018-05-12T10:46:16.471Z,44.34
2018-05-12T10:48:42.061Z,44.33
2018-05-12T10:51:07.870Z,44.33
2018-05-12T10:53:33.437Z,43.17
2018-05-12T10:55:59.094Z,43.92
2018-05-12T10:58:24.899Z,43.50
2018-05-12T11:00:50.512Z,43.37
2018-05-12T11:03:16.088Z,44.49
2018-05-12T11:05:41.889Z,44.77
2018-05-12T11:08:07.460Z,43.55
2018-05-12T11:10:33.022Z,44.22
2018-05-12T11:12:59.518Z,44.44
2018-05-12T11:15:25.074Z,41.74
2018-05-12T11:17:50.636Z,40.56
2018-05-12T11:20:16.457Z,39.97
2018-05-12T11:22:42.041Z,41.15
2018-05-12T11:25:07.601Z,40.92
2018-05-12T11:27:33.455Z,40.51
2018-05-12T11:29:59.119Z,41.68
2018-05-12T11:32:25.316Z,40.56
2018-05-12T11:34:50.959Z,40.62
2018-05-12T11:37:16.593Z,40.64
2018-05-12T11:39:42.665Z,41.02
2018-05-12T11:42:08.256Z,42.64
2018-05-12T11:44:33.929Z,42.37
2018-05-12T11:46:59.640Z,40.73
2018-05-12T11:49:25.288Z,41.24
2018-05-12T11:51:51.009Z,40.40
2018-05-12T11:54:16.826Z,40.17
2018-05-12T11:56:42.632Z,41.22
2018-05-12T11:59:08.186Z,41.11
2018-05-12T12:01:33.835Z,41.04
2018-05-12T12:03:59.754Z,40.94
2018-05-12T12:06:25.450Z,40.04
2018-05-12T12:08:51.076Z,41.00
2018-05-12T12:11:17.070Z,40.23
2018-05-12T12:13:42.836Z,40.34
2018-05-12T12:16:08.459Z,38.99
2018-05-12T12:18:34.143Z,39.67
2018-05-12T12:20:59.991Z,39.76
2018-05-12T12:23:25.579Z,39.04
2018-05-12T12:25:51.378Z,39.17
2018-05-12T12:28:17.005Z,39.86
2018-05-12T12:30:42.797Z,38.54
2018-05-12T12:33:08.562Z,39.01
2018-05-12T12:35:34.125Z,38.97
2018-05-12T12:37:59.793Z,38.06
2018-05-12T12:40:25.668Z,37.05
2018-05-12T12:42:51.269Z,37.59
2018-05-12T12:45:17.074Z,38.71
2018-05-12T12:47:42.792Z,38.19
2018-05-12T12:50:08.563Z,36.83
2018-05-12T12:52:34.147Z,36.30
2018-05-12T12:55:00.204Z,36.26
2018-05-12T12:57:26.010Z,36.51
2018-05-12T12:59:51.793Z,37.00
2018-05-12T13:02:17.691Z,36.17
2018-05-12T13:07:21.464Z,36.46
2018-05-12T13:09:47.071Z,36.43
2018-05-12T13:12:12.740Z,37.90
2018-05-12T13:14:38.261Z,36.06
2018-05-12T13:17:03.839Z,35.08
2018-05-12T13:19:29.670Z,35.38
2018-05-12T13:21:55.432Z,35.17
2018-05-12T13:24:20.991Z,34.03
2018-05-12T13:26:46.562Z,34.49
2018-05-12T13:29:12.327Z,34.51
2018-05-12T13:31:38.037Z,35.12
2018-05-12T13:34:03.682Z,34.18
2018-05-12T13:36:29.464Z,34.32
2018-05-12T13:38:55.300Z,33.63
2018-05-12T13:41:20.885Z,34.37
2018-05-12T13:43:46.566Z,34.47
2018-05-12T13:46:12.127Z,34.89
2018-05-12T13:48:37.709Z,33.37
2018-05-12T13:51:03.470Z,34.11
2018-05-12T13:53:29.039Z,35.16
2018-05-12T13:55:54.823Z,34.30
2018-05-12T13:58:20.593Z,33.22
2018-05-12T14:00:46.164Z,32.74
2018-05-12T14:03:11.681Z,32.27
2018-05-12T14:05:37.486Z,31.39
2018-05-12T14:08:03.029Z,31.70
2018-05-12T14:10:28.629Z,31.98
2018-05-12T14:12:54.719Z,31.44
2018-05-12T14:15:20.242Z,31.71
2018-05-12T14:17:45.818Z,32.78
2018-05-12T14:20:11.944Z,32.47
2018-05-12T14:22:37.475Z,31.43
2018-05-12T14:25:02.992Z,31.23
2018-05-12T14:27:28.767Z,30.82
2018-05-12T14:29:54.266Z,30.80
2018-05-12T14:32:19.791Z,30.88
2018-05-12T14:34:45.480Z,30.92
2018-05-12T14:37:10.997Z,31.17
2018-05-12T14:39:36.520Z,31.18
2018-05-12T14:42:02.319Z,30.86
2018-05-12T14:44:28.054Z,31.46
2018-05-12T14:46:53.562Z,30.82
2018-05-12T14:49:19.391Z,30.97
2018-05-12T14:51:44.910Z,30.80
2018-05-12T14:54:10.698Z,31.21
2018-05-12T14:56:36.784Z,31.26
2018-05-12T14:59:02.341Z,31.25
2018-05-12T15:01:27.929Z,30.69
2018-05-12T15:03:53.792Z,30.59
2018-05-12T15:06:19.315Z,30.94
2018-05-12T15:08:44.840Z,31.22
2018-05-12T15:11:10.539Z,30.65
2018-05-12T15:13:36.283Z,31.11
2018-05-12T15:16:01.802Z,30.90
2018-05-12T15:18:27.710Z,31.29
2018-05-12T15:20:53.216Z,32.18
2018-05-12T15:23:19.042Z,31.68
2018-05-12T15:25:45.700Z,32.06
2018-05-12T15:28:11.311Z,32.75
2018-05-12T15:30:37.106Z,32.93
2018-05-12T15:33:02.712Z,33.40
2018-05-12T15:35:28.245Z,33.52
2018-05-12T15:37:54.292Z,33.91
2018-05-12T15:40:19.814Z,33.92
2018-05-12T15:42:45.329Z,34.28
2018-05-12T15:45:11.100Z,34.58
2018-05-12T15:47:36.677Z,34.82
2018-05-12T15:50:02.333Z,34.71
2018-05-12T15:52:28.041Z,34.60
2018-05-12T15:54:53.575Z,35.26
2018-05-12T15:57:19.205Z,34.77
2018-05-12T15:59:44.963Z,35.12
2018-05-12T16:02:10.489Z,35.38
2018-05-12T16:04:36.180Z,35.47
2018-05-12T16:07:01.912Z,36.02
2018-05-12T16:09:27.689Z,35.21
2018-05-12T16:11:53.195Z,35.86
2018-05-12T16:14:18.913Z,36.26
2018-05-12T16:16:44.485Z,35.43
2018-05-12T16:19:09.996Z,36.38
2018-05-12T16:21:36.091Z,37.51
2018-05-12T16:24:01.615Z,38.46
2018-05-12T16:26:27.157Z,39.38
2018-05-12T16:28:52.844Z,38.69
2018-05-12T16:31:18.391Z,39.43
2018-05-12T16:33:43.881Z,38.97
2018-05-12T16:36:09.598Z,37.46
2018-05-12T16:38:35.492Z,38.00
2018-05-12T16:41:01.068Z,38.11
2018-05-12T16:43:26.793Z,39.03
2018-05-12T16:45:52.327Z,38.66
2018-05-12T16:48:18.171Z,38.11
2018-05-12T16:50:43.891Z,38.91
2018-05-12T16:53:09.426Z,38.92
2018-05-12T16:55:34.932Z,38.99
2018-05-12T16:58:00.554Z,38.00
2018-05-12T17:00:26.317Z,37.35
2018-05-12T17:02:51.883Z,37.41
2018-05-12T17:05:17.498Z,37.60
2018-05-12T17:07:43.210Z,37.93
2018-05-12T17:10:08.769Z,36.91
2018-05-12T17:12:34.584Z,36.56
2018-05-12T17:15:00.700Z,37.07
2018-05-12T17:17:26.241Z,37.01
2018-05-12T17:19:51.814Z,36.33
2018-05-12T17:22:17.583Z,36.53
2018-05-12T17:24:43.104Z,36.16
2018-05-12T17:27:08.737Z,36.33
2018-05-12T17:29:34.486Z,36.50
2018-05-12T17:32:00.577Z,36.42
2018-05-12T17:34:26.144Z,36.80
2018-05-12T17:36:51.710Z,36.91
2018-05-12T17:39:17.421Z,36.94
2018-05-12T17:41:43.132Z,36.85
2018-05-12T17:44:08.756Z,37.31
2018-05-12T17:46:41.287Z,37.89
2018-05-12T17:49:06.791Z,37.71
2018-05-12T17:51:33.233Z,38.00
2018-05-12T17:53:58.961Z,38.34
2018-05-12T17:56:24.741Z,38.76
2018-05-12T17:58:50.359Z,39.16
2018-05-12T18:01:16.443Z,39.10
2018-05-12T18:03:45.990Z,40.05
2018-05-12T18:06:13.579Z,40.02
2018-05-12T18:08:40.681Z,40.70
2018-05-12T18:11:09.007Z,41.20
2018-05-12T18:13:36.801Z,41.37
2018-05-12T18:16:08.479Z,41.38
2018-05-12T18:18:35.046Z,41.54
2018-05-12T18:21:03.116Z,41.34
2018-05-12T18:23:35.036Z,41.49
2018-05-12T18:26:02.349Z,41.58
2018-05-12T18:28:35.299Z,41.85
2018-05-12T18:31:01.493Z,42.14
2018-05-12T18:33:29.185Z,42.38
2018-05-12T18:35:54.834Z,42.49
2018-05-12T18:38:20.559Z,42.48
2018-05-12T18:40:46.125Z,42.61
2018-05-12T18:43:11.639Z,42.81
2018-05-12T18:45:37.712Z,42.77
2018-05-12T18:48:03.304Z,43.40
2018-05-12T18:50:28.923Z,43.62
2018-05-12T18:52:55.120Z,43.56
2018-05-12T18:55:20.636Z,43.62
2018-05-12T18:57:46.230Z,43.78
2018-05-12T19:00:11.921Z,43.97
2018-05-12T19:02:37.436Z,43.98
2018-05-12T19:05:02.964Z,44.08
2018-05-12T19:07:29.072Z,44.00
2018-05-12T19:09:54.696Z,43.89
2018-05-12T19:12:20.529Z,44.30
2018-05-12T19:14:46.382Z,44.84
2018-05-12T19:17:11.940Z,44.66
2018-05-12T19:19:37.491Z,44.91
2018-05-12T19:22:03.187Z,45.01
2018-05-12T19:24:28.716Z,47.54
2018-05-12T19:26:54.227Z,50.60
2018-05-12T19:29:20.308Z,51.19
2018-05-12T19:31:45.866Z,52.44
2018-05-12T19:34:11.458Z,52.55
2018-05-12T19:36:37.174Z,51.63
2018-05-12T19:39:02.737Z,51.84
2018-05-12T19:41:28.253Z,51.67
2018-05-12T19:43:54.002Z,51.19
2018-05-12T19:46:19.513Z,51.60
2018-05-12T19:48:45.036Z,51.91
2018-05-12T19:51:10.883Z,52.71
2018-05-12T19:53:36.452Z,53.00
2018-05-12T19:56:02.210Z,53.26
2018-05-12T19:58:28.028Z,53.52
2018-05-12T20:00:53.541Z,53.82
2018-05-12T20:03:19.121Z,54.35
2018-05-12T20:05:44.832Z,53.95
2018-05-12T20:08:10.355Z,53.84
2018-05-12T20:10:35.921Z,53.81
2018-05-12T20:13:01.685Z,52.99
2018-05-12T20:15:27.351Z,53.31
2018-05-12T20:17:52.853Z,53.09
2018-05-12T20:20:18.526Z,53.07
2018-05-12T20:22:44.080Z,52.49
2018-05-12T20:25:09.589Z,52.54
2018-05-12T20:27:35.648Z,52.79
2018-05-12T20:30:01.475Z,53.00
2018-05-12T20:32:29.976Z,52.59
2018-05-12T20:34:55.540Z,52.19
2018-05-12T20:37:21.389Z,52.58
2018-05-12T20:39:46.977Z,53.00
2018-05-12T20:42:12.627Z,53.33
2018-05-12T20:44:38.154Z,53.50
2018-05-12T20:47:03.873Z,53.54
2018-05-12T20:49:29.451Z,53.49
2018-05-12T20:51:54.983Z,53.28
2018-05-12T20:54:20.698Z,53.70
2018-05-12T20:56:46.225Z,53.21
2018-05-12T20:59:11.878Z,52.59
2018-05-12T21:01:37.678Z,52.05
2018-05-12T21:04:03.270Z,51.78
2018-05-12T21:06:29.127Z,50.97
2018-05-12T21:08:54.860Z,49.94
2018-05-12T21:11:20.680Z,49.58
2018-05-12T21:13:46.199Z,49.28
2018-05-12T21:16:11.716Z,49.17
2018-05-12T21:18:37.441Z,49.29
2018-05-12T21:21:03.014Z,49.25
2018-05-12T21:23:28.567Z,49.36
2018-05-12T21:25:54.240Z,50.50
2018-05-12T21:28:19.772Z,51.26
2018-05-12T21:30:45.340Z,52.12
2018-05-12T21:33:11.244Z,52.54
2018-05-12T21:35:36.834Z,52.76
2018-05-12T21:38:02.614Z,52.74
2018-05-12T21:40:28.362Z,53.11
2018-05-12T21:42:53.927Z,53.07
2018-05-12T21:45:19.524Z,52.59
2018-05-12T21:47:45.223Z,53.55
2018-05-12T21:50:10.748Z,53.71
2018-05-12T21:52:36.508Z,55.36
2018-05-12T21:55:02.091Z,56.10
2018-05-12T21:57:30.278Z,57.08
2018-05-12T21:59:56.076Z,56.98
2018-05-12T22:02:21.859Z,58.30
2018-05-12T22:04:47.383Z,65.05
2018-05-12T22:07:12.950Z,67.65
2018-05-12T22:09:38.681Z,69.95
2018-05-12T22:12:04.320Z,70.94
2018-05-12T22:14:29.941Z,71.78
2018-05-12T22:16:55.463Z,71.97
2018-05-12T22:19:21.498Z,72.85
2018-05-12T22:21:47.002Z,73.58
2018-05-12T22:24:12.569Z,68.32
2018-05-12T22:26:38.371Z,62.54
2018-05-12T22:29:04.105Z,64.52
2018-05-12T22:31:29.629Z,67.96
2018-05-12T22:33:55.184Z,72.41
2018-05-12T22:36:21.240Z,72.36
2018-05-12T22:38:46.748Z,72.11
2018-05-12T22:41:12.248Z,72.68
2018-05-12T22:43:38.102Z,72.50
2018-05-12T22:46:03.643Z,72.17
2018-05-12T22:48:29.164Z,70.95
2018-05-12T22:50:54.872Z,69.53
2018-05-12T22:53:20.394Z,71.10
2018-05-12T22:55:45.986Z,68.28
2018-05-12T22:58:11.660Z,69.35
2018-05-12T23:00:37.228Z,70.65
2018-05-12T23:03:03.035Z,74.15
2018-05-12T23:05:28.549Z,74.59
2018-05-12T23:07:54.314Z,74.13
2018-05-12T23:10:19.977Z,74.22
2018-05-12T23:12:45.549Z,74.28
2018-05-12T23:15:11.073Z,74.83
2018-05-12T23:17:36.777Z,74.68
2018-05-12T23:20:02.302Z,72.99
2018-05-12T23:22:27.848Z,75.43
2018-05-12T23:24:53.602Z,74.19
2018-05-12T23:27:19.102Z,73.63
2018-05-12T23:29:44.784Z,74.30
2018-05-12T23:32:10.581Z,75.69
2018-05-12T23:34:36.362Z,75.84
2018-05-12T23:37:02.138Z,76.21
2018-05-12T23:39:27.716Z,76.79
2018-05-12T23:41:53.438Z,76.36
2018-05-12T23:44:19.016Z,76.09
2018-05-12T23:46:44.530Z,74.81
2018-05-12T23:49:10.233Z,78.86
2018-05-12T23:51:36.011Z,79.50
2018-05-12T23:54:01.543Z,79.76
2018-05-12T23:56:27.399Z,78.97
2018-05-12T23:58:52.963Z,78.99
